createdAt,value
2022-07-29T00:00:27.942Z,100079.63
2022-07-29T00:02:54.849Z,100069.03
2022-07-29T00:05:21.779Z,100060.28
2022-07-29T00:07:48.671Z,100057.78
2022-07-29T00:10:15.538Z,100066.38
2022-07-29T00:12:42.432Z,100035.84
2022-07-29T00:15:09.931Z,100072.75
2022-07-29T00:17:36.841Z,100061.97
2022-07-29T00:20:05.031Z,100061.13
2022-07-29T00:22:32.956Z,100053.09
2022-07-29T00:24:59.915Z,100058.34
2022-07-29T00:27:26.799Z,100046.00
2022-07-29T00:29:53.720Z,100059.84
2022-07-29T00:32:20.556Z,100029.63
2022-07-29T00:35:05.940Z,100045.06
2022-07-29T00:37:32.839Z,100043.94
2022-07-29T00:39:59.693Z,100038.56
2022-07-29T00:42:26.617Z,100050.28
2022-07-29T00:44:53.441Z,100052.81
2022-07-29T00:47:20.386Z,100006.06
2022-07-29T00:49:47.815Z,100038.97
2022-07-29T00:52:17.015Z,100046.72
2022-07-29T00:54:45.037Z,100036.97
2022-07-29T00:57:13.010Z,100038.53
2022-07-29T00:59:40.481Z,100037.53
2022-07-29T01:02:07.471Z,100031.44
2022-07-29T01:04:34.721Z,100027.78
2022-07-29T01:07:03.123Z,100055.31
2022-07-29T01:09:43.106Z,100046.00
2022-07-29T01:12:18.960Z,100041.63
2022-07-29T01:14:48.391Z,99997.94
2022-07-29T01:17:34.980Z,100050.22
2022-07-29T01:20:50.355Z,100030.44
2022-07-29T01:23:35.615Z,100046.38
2022-07-29T01:26:14.387Z,100038.91
2022-07-29T01:29:01.059Z,100037.91
2022-07-29T01:31:55.189Z,100037.50
2022-07-29T01:34:51.641Z,100017.53
2022-07-29T01:37:27.389Z,100023.03
2022-07-29T01:39:57.586Z,100016.13
2022-07-29T01:42:30.370Z,100042.59
2022-07-29T01:45:11.944Z,100046.13
2022-07-29T01:47:44.741Z,100046.22
2022-07-29T01:50:15.876Z,100032.50
2022-07-29T01:52:57.291Z,100025.69
2022-07-29T01:55:28.190Z,100034.38
2022-07-29T01:57:57.580Z,99996.97
2022-07-29T02:00:26.220Z,100012.63
2022-07-29T02:02:55.492Z,100013.38
2022-07-29T02:05:24.348Z,100027.59
2022-07-29T02:07:53.566Z,100038.56
2022-07-29T02:10:26.028Z,99989.31
2022-07-29T02:12:56.335Z,100021.94
2022-07-29T02:15:26.869Z,99945.34
2022-07-29T02:18:08.399Z,100007.53
2022-07-29T02:20:35.711Z,100017.53
2022-07-29T02:23:03.792Z,100026.13
2022-07-29T02:25:37.232Z,100030.19
2022-07-29T02:28:09.166Z,100040.56
2022-07-29T02:30:43.000Z,100040.97
2022-07-29T02:33:13.674Z,100011.19
2022-07-29T02:35:42.182Z,100031.22
2022-07-29T02:38:31.960Z,100043.78
2022-07-29T02:41:01.463Z,100035.84
2022-07-29T02:43:30.129Z,100037.69
2022-07-29T02:45:59.427Z,100031.50
2022-07-29T02:48:35.821Z,100025.47
2022-07-29T02:51:43.754Z,100028.56
2022-07-29T02:54:08.983Z,100036.88
2022-07-29T02:56:37.420Z,100025.16
2022-07-29T02:59:10.779Z,100038.88
2022-07-29T03:01:43.678Z,100044.22
2022-07-29T03:04:12.911Z,100027.59
2022-07-29T03:06:41.741Z,100032.75
2022-07-29T03:09:13.315Z,100026.38
2022-07-29T03:11:49.883Z,100021.28
2022-07-29T03:14:20.828Z,100037.94
2022-07-29T03:16:49.427Z,100015.34
2022-07-29T03:19:17.337Z,100022.53
2022-07-29T03:21:51.453Z,100036.53
2022-07-29T03:24:36.014Z,100037.13
2022-07-29T03:27:04.662Z,100039.44
2022-07-29T03:29:33.126Z,100020.91
2022-07-29T03:32:02.717Z,100016.66
2022-07-29T03:34:30.503Z,100043.94
2022-07-29T03:36:57.415Z,100021.88
2022-07-29T03:39:28.816Z,100016.78
2022-07-29T03:41:59.654Z,100039.69
2022-07-29T03:44:28.541Z,100025.25
2022-07-29T03:46:59.654Z,100039.56
2022-07-29T03:49:27.899Z,99972.69
2022-07-29T03:51:55.681Z,100030.81
2022-07-29T03:54:22.696Z,100015.25
2022-07-29T03:56:51.744Z,100030.94
2022-07-29T03:59:20.641Z,100013.72
2022-07-29T04:01:49.138Z,100007.53
2022-07-29T04:04:16.513Z,100029.81
2022-07-29T04:06:46.075Z,100034.53
2022-07-29T04:09:15.353Z,100053.06
2022-07-29T04:12:02.383Z,100037.53
2022-07-29T04:14:30.140Z,100028.06
2022-07-29T04:16:57.011Z,100042.91
2022-07-29T04:19:23.854Z,100050.63
2022-07-29T04:21:57.436Z,100050.50
2022-07-29T04:24:24.254Z,99970.47
2022-07-29T04:26:51.179Z,100044.72
2022-07-29T04:29:18.092Z,100048.03
2022-07-29T04:31:45.418Z,100046.09
2022-07-29T04:34:13.471Z,100038.72
2022-07-29T04:36:40.787Z,100026.44
2022-07-29T04:39:07.617Z,100050.59
2022-07-29T04:41:34.683Z,100060.78
2022-07-29T04:44:06.170Z,100058.22
2022-07-29T04:46:35.044Z,100021.22
2022-07-29T04:49:02.212Z,100055.47
2022-07-29T04:51:29.129Z,100043.06
2022-07-29T04:53:56.008Z,100021.63
2022-07-29T04:56:23.020Z,100052.91
2022-07-29T04:58:49.914Z,100039.25
2022-07-29T05:01:16.847Z,100063.97
2022-07-29T05:03:43.736Z,100045.63
2022-07-29T05:06:10.868Z,100037.78
2022-07-29T05:08:38.358Z,100066.97
2022-07-29T05:11:12.182Z,100057.13
2022-07-29T05:13:45.422Z,100048.09
2022-07-29T05:16:14.802Z,100059.13
2022-07-29T05:18:42.250Z,100032.59
2022-07-29T05:21:09.250Z,100066.25
2022-07-29T05:23:36.122Z,100058.06
2022-07-29T05:28:58.133Z,100058.25
2022-07-29T05:31:25.086Z,100071.41
2022-07-29T05:33:51.998Z,100083.00
2022-07-29T05:36:19.340Z,100067.72
2022-07-29T05:38:46.281Z,100085.06
2022-07-29T05:41:13.158Z,100075.16
2022-07-29T05:43:40.033Z,100082.09
2022-07-29T05:46:07.016Z,100072.47
2022-07-29T05:48:33.913Z,100063.13
2022-07-29T05:51:00.826Z,100095.53
2022-07-29T05:53:27.712Z,100079.53
2022-07-29T05:55:54.629Z,100100.06
2022-07-29T05:58:21.729Z,100092.13
2022-07-29T06:00:48.657Z,100104.25
2022-07-29T06:03:15.510Z,100097.31
2022-07-29T06:05:42.391Z,100087.28
2022-07-29T06:08:10.290Z,100094.59
2022-07-29T06:10:37.215Z,100087.25
2022-07-29T06:13:04.523Z,100070.81
2022-07-29T06:15:31.751Z,100081.03
2022-07-29T06:17:59.119Z,100108.19
2022-07-29T06:20:30.908Z,100083.50
2022-07-29T06:22:59.301Z,100077.25
2022-07-29T06:25:26.399Z,100109.28
2022-07-29T06:27:53.509Z,100097.59
2022-07-29T06:30:20.497Z,100097.88
2022-07-29T06:32:47.921Z,100101.97
2022-07-29T06:38:02.455Z,100105.31
2022-07-29T06:40:47.708Z,100097.91
2022-07-29T06:43:14.708Z,100109.06
2022-07-29T06:45:42.644Z,100115.88
2022-07-29T06:48:11.058Z,100113.88
2022-07-29T06:50:38.144Z,100089.22
2022-07-29T06:53:05.252Z,100107.94
2022-07-29T06:55:32.204Z,100108.31
2022-07-29T06:57:59.176Z,100104.16
2022-07-29T07:00:26.697Z,100117.84
2022-07-29T07:02:53.877Z,100082.72
2022-07-29T07:05:20.912Z,100076.13
2022-07-29T07:07:47.743Z,100109.72
2022-07-29T07:10:14.639Z,100102.41
2022-07-29T07:12:41.482Z,100090.66
2022-07-29T07:15:08.639Z,100104.41
2022-07-29T07:17:35.600Z,100088.75
2022-07-29T07:20:02.472Z,100073.66
2022-07-29T07:22:29.327Z,100099.34
2022-07-29T07:24:56.142Z,100101.28
2022-07-29T07:27:23.773Z,100091.28
2022-07-29T07:29:50.741Z,100101.69
2022-07-29T07:32:17.783Z,100097.72
2022-07-29T07:34:44.888Z,100089.16
2022-07-29T07:37:12.928Z,100092.56
2022-07-29T07:39:39.758Z,100077.44
2022-07-29T07:42:06.765Z,100098.22
2022-07-29T07:44:46.290Z,100092.97
2022-07-29T07:47:24.660Z,100087.00
2022-07-29T07:49:54.976Z,100106.66
2022-07-29T07:52:23.114Z,100121.25
2022-07-29T07:54:50.077Z,100091.16
2022-07-29T07:57:17.335Z,100071.03
2022-07-29T07:59:44.191Z,100118.63
2022-07-29T08:02:11.308Z,100118.59
2022-07-29T08:04:39.066Z,100130.13
2022-07-29T08:07:05.932Z,100114.19
2022-07-29T08:09:32.901Z,100109.66
2022-07-29T08:12:06.525Z,100115.25
2022-07-29T08:14:34.485Z,100124.50
2022-07-29T08:17:01.758Z,100104.59
2022-07-29T08:19:28.819Z,100123.00
2022-07-29T08:21:57.927Z,100101.47
2022-07-29T08:24:43.234Z,100114.19
2022-07-29T08:27:40.721Z,100123.38
2022-07-29T08:30:01.600Z,100114.56
2022-07-29T08:32:51.883Z,100106.25
2022-07-29T08:35:16.435Z,100102.69
2022-07-29T08:37:43.253Z,100095.19
2022-07-29T08:40:10.584Z,100116.25
2022-07-29T08:42:37.719Z,100039.13
2022-07-29T08:45:06.305Z,100120.66
2022-07-29T08:47:34.569Z,100115.88
2022-07-29T08:50:01.410Z,100100.97
2022-07-29T08:52:33.675Z,100100.13
2022-07-29T08:55:01.064Z,100122.72
2022-07-29T08:57:37.138Z,100125.56
2022-07-29T09:00:11.781Z,100110.34
2022-07-29T09:02:43.325Z,100078.72
2022-07-29T09:05:14.027Z,100086.91
2022-07-29T09:07:44.309Z,100063.75
2022-07-29T09:10:11.750Z,100107.38
2022-07-29T09:12:39.089Z,100077.41
2022-07-29T09:15:06.699Z,100117.00
2022-07-29T09:17:50.465Z,100113.66
2022-07-29T09:20:19.813Z,100105.75
2022-07-29T09:22:50.725Z,100044.41
2022-07-29T09:25:38.995Z,100106.00
2022-07-29T09:28:14.563Z,100057.91
2022-07-29T09:30:54.606Z,100103.53
2022-07-29T09:33:31.975Z,100091.34
2022-07-29T09:36:09.633Z,100063.38
2022-07-29T09:38:38.148Z,100085.00
2022-07-29T09:41:06.929Z,100080.00
2022-07-29T09:43:34.550Z,100092.03
2022-07-29T09:46:16.177Z,100066.94
2022-07-29T09:48:43.215Z,100056.59
2022-07-29T09:51:24.094Z,100090.91
2022-07-29T09:53:54.228Z,100069.09
2022-07-29T09:56:27.665Z,100076.06
2022-07-29T09:59:27.499Z,100074.78
2022-07-29T10:02:00.555Z,100075.00
2022-07-29T10:05:24.500Z,100058.63
2022-07-29T10:07:57.903Z,100067.22
2022-07-29T10:10:34.922Z,100069.25
2022-07-29T10:13:13.521Z,100044.97
2022-07-29T10:15:46.347Z,100065.75
2022-07-29T10:18:18.714Z,100058.41
2022-07-29T10:20:46.533Z,100034.03
2022-07-29T10:23:15.510Z,100063.03
2022-07-29T10:25:46.387Z,100043.16
2022-07-29T10:28:16.470Z,100049.03
2022-07-29T10:30:45.985Z,100038.75
2022-07-29T10:33:38.430Z,100045.56
2022-07-29T10:36:45.687Z,100040.66
2022-07-29T10:39:53.749Z,100043.19
2022-07-29T10:42:33.967Z,100041.78
2022-07-29T10:45:05.051Z,100038.69
2022-07-29T10:50:17.202Z,100034.28
2022-07-29T10:52:50.527Z,100034.25
2022-07-29T10:58:31.233Z,100024.56
2022-07-29T11:01:37.585Z,100021.63
2022-07-29T11:04:06.480Z,100017.63
2022-07-29T11:06:59.908Z,100016.06
2022-07-29T11:09:37.541Z,99981.53
2022-07-29T11:12:37.200Z,100018.91
2022-07-29T11:15:13.781Z,99972.81
2022-07-29T11:17:59.451Z,100006.81
2022-07-29T11:20:38.089Z,100011.25
2022-07-29T11:23:27.829Z,100010.81
2022-07-29T11:26:23.330Z,100008.06
2022-07-29T11:29:07.320Z,100000.66
2022-07-29T11:31:39.167Z,99991.28
2022-07-29T11:34:21.618Z,100001.59
2022-07-29T11:37:07.771Z,99996.97
2022-07-29T11:39:37.630Z,99961.06
2022-07-29T11:42:28.266Z,99991.06
2022-07-29T11:45:43.678Z,99995.09
2022-07-29T11:48:28.045Z,99987.03
2022-07-29T11:50:49.439Z,99972.94
2022-07-29T11:53:17.301Z,99964.75
2022-07-29T11:58:32.005Z,99975.91
2022-07-29T12:01:04.932Z,99953.00
2022-07-29T12:03:35.035Z,99965.72
2022-07-29T12:06:23.307Z,99968.88
2022-07-29T12:08:50.339Z,99953.56
2022-07-29T12:11:39.120Z,99964.03
2022-07-29T12:14:06.828Z,99945.19
2022-07-29T12:16:41.086Z,99965.13
2022-07-29T12:19:08.692Z,99967.22
2022-07-29T12:21:56.214Z,99963.47
2022-07-29T12:24:26.930Z,99957.16
2022-07-29T12:27:02.780Z,99956.97
2022-07-29T12:29:33.771Z,99940.53
2022-07-29T12:32:03.087Z,99949.56
2022-07-29T12:34:30.842Z,99943.84
2022-07-29T12:36:57.842Z,99930.16
2022-07-29T12:39:27.523Z,99920.44
2022-07-29T12:42:03.905Z,99936.03
2022-07-29T12:44:52.351Z,99937.63
2022-07-29T12:47:20.750Z,99925.88
2022-07-29T12:49:48.460Z,99915.22
2022-07-29T12:52:33.478Z,99915.66
2022-07-29T12:55:01.985Z,99896.41
2022-07-29T12:57:29.295Z,99922.69
2022-07-29T13:00:04.962Z,99913.81
2022-07-29T13:02:32.483Z,99911.53
2022-07-29T13:05:01.330Z,99912.06
2022-07-29T13:07:54.148Z,99891.63
2022-07-29T13:10:19.712Z,99908.56
2022-07-29T13:13:11.993Z,99901.16
2022-07-29T13:15:41.136Z,99895.53
2022-07-29T13:18:37.116Z,99848.63
2022-07-29T13:21:18.740Z,99893.25
2022-07-29T13:23:46.081Z,99882.25
2022-07-29T13:26:13.187Z,99889.91
2022-07-29T13:28:40.145Z,99891.69
2022-07-29T13:31:11.383Z,99875.91
2022-07-29T13:33:38.272Z,99868.25
2022-07-29T13:36:05.217Z,99866.13
2022-07-29T13:38:32.062Z,99864.91
2022-07-29T13:40:59.679Z,99877.97
2022-07-29T13:43:26.568Z,99844.22
2022-07-29T13:45:53.445Z,99854.84
2022-07-29T13:48:20.433Z,99862.78
2022-07-29T13:50:47.800Z,99846.31
2022-07-29T13:53:17.602Z,99845.16
2022-07-29T13:55:45.381Z,99854.09
2022-07-29T13:58:12.340Z,99848.66
2022-07-29T14:00:39.479Z,99857.34
2022-07-29T14:03:07.571Z,99803.03
2022-07-29T14:05:34.580Z,99841.47
2022-07-29T14:08:01.477Z,99833.09
2022-07-29T14:10:28.343Z,99851.38
2022-07-29T14:12:55.249Z,99846.31
2022-07-29T14:15:22.336Z,99848.66
2022-07-29T14:17:49.243Z,99832.13
2022-07-29T14:20:17.200Z,99838.22
2022-07-29T14:22:45.031Z,99836.31
2022-07-29T14:25:14.632Z,99835.28
2022-07-29T14:27:43.224Z,99825.44
2022-07-29T14:30:10.770Z,99809.75
2022-07-29T14:32:37.684Z,99808.09
2022-07-29T14:35:05.811Z,99820.38
2022-07-29T14:37:39.778Z,99818.34
2022-07-29T14:40:09.091Z,99833.41
2022-07-29T14:42:37.223Z,99823.34
2022-07-29T14:45:05.802Z,99814.25
2022-07-29T14:47:32.734Z,99810.31
2022-07-29T14:49:59.563Z,99811.25
2022-07-29T14:52:26.470Z,99797.56
2022-07-29T14:54:53.364Z,99787.44
2022-07-29T14:57:20.921Z,99800.78
2022-07-29T14:59:47.773Z,99798.47
2022-07-29T15:02:14.653Z,99788.69
2022-07-29T15:04:41.575Z,99766.25
2022-07-29T15:07:08.479Z,99796.69
2022-07-29T15:09:36.276Z,99782.16
2022-07-29T15:12:08.020Z,99764.19
2022-07-29T15:14:34.932Z,99802.69
2022-07-29T15:17:01.877Z,99751.81
2022-07-29T15:19:31.717Z,99768.91
2022-07-29T15:21:59.760Z,99771.84
2022-07-29T15:24:27.146Z,99790.56
2022-07-29T15:26:54.918Z,99761.78
2022-07-29T15:29:22.499Z,99767.28
2022-07-29T15:31:49.452Z,99757.59
2022-07-29T15:34:16.396Z,99764.03
2022-07-29T15:36:52.378Z,99771.47
2022-07-29T15:39:20.599Z,99751.22
2022-07-29T15:41:47.712Z,99752.16
2022-07-29T15:44:14.651Z,99771.53
2022-07-29T15:47:01.010Z,99772.59
2022-07-29T15:49:47.717Z,99741.91
2022-07-29T15:52:20.324Z,99767.31
2022-07-29T15:54:57.005Z,99724.94
2022-07-29T15:57:24.880Z,99772.00
2022-07-29T15:59:52.162Z,99771.38
2022-07-29T16:02:19.164Z,99758.09
2022-07-29T16:04:46.057Z,99752.84
2022-07-29T16:07:12.946Z,99751.00
2022-07-29T16:09:41.709Z,99726.16
2022-07-29T16:12:14.964Z,99748.19
2022-07-29T16:14:43.813Z,99754.56
2022-07-29T16:17:14.546Z,99764.34
2022-07-29T16:19:43.119Z,99721.81
2022-07-29T16:22:10.122Z,99751.75
2022-07-29T16:24:37.217Z,99759.09
2022-07-29T16:27:04.226Z,99767.88
2022-07-29T16:29:31.194Z,99781.28
2022-07-29T16:31:58.158Z,99754.50
2022-07-29T16:34:25.149Z,99770.19
2022-07-29T16:36:52.027Z,99759.53
2022-07-29T16:39:18.828Z,99753.63
2022-07-29T16:41:45.681Z,99755.78
2022-07-29T16:44:12.618Z,99754.88
2022-07-29T16:46:39.635Z,99754.94
2022-07-29T16:49:08.478Z,99733.28
2022-07-29T16:51:35.540Z,99764.22
2022-07-29T16:54:02.363Z,99765.41
2022-07-29T16:56:29.292Z,99778.13
2022-07-29T16:58:58.205Z,99776.72
2022-07-29T17:01:25.173Z,99765.81
2022-07-29T17:04:07.407Z,99770.00
2022-07-29T17:06:40.472Z,99760.88
2022-07-29T17:09:09.502Z,99745.50
2022-07-29T17:11:53.687Z,99773.34
2022-07-29T17:14:28.331Z,99767.06
2022-07-29T17:17:01.083Z,99772.19
2022-07-29T17:19:39.759Z,99772.22
2022-07-29T17:22:15.682Z,99752.38
2022-07-29T17:24:45.612Z,99768.34
2022-07-29T17:27:12.976Z,99760.88
2022-07-29T17:29:40.055Z,99779.84
2022-07-29T17:32:09.241Z,99786.59
2022-07-29T17:34:41.440Z,99774.66
2022-07-29T17:37:10.780Z,99795.34
2022-07-29T17:39:41.990Z,99773.66
2022-07-29T17:42:10.911Z,99771.50
2022-07-29T17:44:39.181Z,99807.22
2022-07-29T17:47:15.985Z,99812.09
2022-07-29T17:49:44.300Z,99819.66
2022-07-29T17:52:11.621Z,99787.41
2022-07-29T17:54:43.955Z,99806.44
2022-07-29T17:57:10.929Z,99808.44
2022-07-29T17:59:37.862Z,99768.22
2022-07-29T18:02:04.807Z,99799.72
2022-07-29T18:04:31.719Z,99783.00
2022-07-29T18:06:58.928Z,99804.59
2022-07-29T18:09:26.096Z,99796.78
2022-07-29T18:11:52.993Z,99816.09
2022-07-29T18:14:19.868Z,99816.13
2022-07-29T18:16:46.782Z,99827.91
2022-07-29T18:19:14.172Z,99824.41
2022-07-29T18:21:45.931Z,99828.34
2022-07-29T18:24:18.995Z,99836.84
2022-07-29T18:26:45.860Z,99836.50
2022-07-29T18:29:12.764Z,99829.06
2022-07-29T18:31:41.278Z,99842.13
2022-07-29T18:34:08.855Z,99844.44
2022-07-29T18:36:35.758Z,99832.22
2022-07-29T18:39:05.402Z,99845.47
2022-07-29T18:41:34.271Z,99840.13
2022-07-29T18:44:01.181Z,99827.59
2022-07-29T18:46:28.111Z,99862.00
2022-07-29T18:48:57.401Z,99858.50
2022-07-29T18:51:24.280Z,99843.72
2022-07-29T18:53:51.233Z,99833.97
2022-07-29T18:56:18.650Z,99855.72
2022-07-29T18:58:45.507Z,99855.09
2022-07-29T19:01:16.418Z,99868.22
2022-07-29T19:03:43.697Z,99876.47
2022-07-29T19:06:10.597Z,99870.09
2022-07-29T19:08:37.454Z,99878.03
2022-07-29T19:11:04.278Z,99880.19
2022-07-29T19:13:31.364Z,99894.16
2022-07-29T19:15:58.377Z,99891.94
2022-07-29T19:18:25.301Z,99902.84
2022-07-29T19:20:52.124Z,99885.47
2022-07-29T19:23:19.858Z,99873.31
2022-07-29T19:25:53.613Z,99898.47
2022-07-29T19:28:21.942Z,99893.41
2022-07-29T19:30:49.442Z,99879.44
2022-07-29T19:33:17.764Z,99886.53
2022-07-29T19:35:54.630Z,99896.34
2022-07-29T19:38:22.205Z,99909.38
2022-07-29T19:40:49.098Z,99907.34
2022-07-29T19:43:51.688Z,99909.75
2022-07-29T19:46:02.992Z,99875.97
2022-07-29T19:48:29.978Z,99919.13
2022-07-29T19:50:57.122Z,99901.09
2022-07-29T19:53:23.987Z,99883.19
2022-07-29T19:55:52.072Z,99897.84
2022-07-29T19:58:18.931Z,99886.38
2022-07-29T20:00:49.440Z,99895.44
2022-07-29T20:03:16.826Z,99887.66
2022-07-29T20:05:43.863Z,99895.28
2022-07-29T20:08:15.198Z,99877.72
2022-07-29T20:10:42.068Z,99885.63
2022-07-29T20:13:09.108Z,99902.97
2022-07-29T20:15:36.291Z,99885.75
2022-07-29T20:18:03.394Z,99900.59
2022-07-29T20:20:30.303Z,99882.47
2022-07-29T20:22:57.437Z,99878.97
2022-07-29T20:25:24.537Z,99859.97
2022-07-29T20:27:52.627Z,99859.69
2022-07-29T20:30:20.565Z,99876.66
2022-07-29T20:32:48.336Z,99872.25
2022-07-29T20:35:15.513Z,99855.09
2022-07-29T20:37:52.449Z,99891.25
2022-07-29T20:40:24.836Z,99866.31
2022-07-29T20:42:52.127Z,99884.84
2022-07-29T20:45:20.219Z,99879.41
2022-07-29T20:47:47.253Z,99851.78
2022-07-29T20:50:14.394Z,99862.69
2022-07-29T20:52:43.417Z,99861.19
2022-07-29T20:55:10.830Z,99875.56
2022-07-29T20:57:38.653Z,99871.25
2022-07-29T21:00:08.497Z,99874.56
2022-07-29T21:02:35.933Z,99858.69
2022-07-29T21:05:02.840Z,99870.72
2022-07-29T21:07:29.756Z,99825.72
2022-07-29T21:09:56.682Z,99866.16
2022-07-29T21:12:23.762Z,99856.16
2022-07-29T21:14:51.893Z,99835.94
2022-07-29T21:17:21.210Z,99880.63
2022-07-29T21:19:52.667Z,99879.84
2022-07-29T21:22:22.077Z,99870.13
2022-07-29T21:24:49.340Z,99886.22
2022-07-29T21:27:35.204Z,99841.44
2022-07-29T21:30:06.923Z,99867.66
2022-07-29T21:32:34.060Z,99864.72
2022-07-29T21:35:00.978Z,99882.91
2022-07-29T21:37:28.275Z,99882.06
2022-07-29T21:39:55.159Z,99851.66
2022-07-29T21:42:22.057Z,99869.81
2022-07-29T21:44:49.031Z,99848.00
2022-07-29T21:47:16.078Z,99879.75
2022-07-29T21:49:42.947Z,99848.72
2022-07-29T21:52:10.876Z,99873.53
2022-07-29T21:54:38.411Z,99883.97
2022-07-29T21:57:05.669Z,99883.97
2022-07-29T21:59:32.851Z,99861.56
2022-07-29T22:02:01.254Z,99861.56
2022-07-29T22:04:29.393Z,99858.31
2022-07-29T22:06:57.890Z,99861.13
2022-07-29T22:09:25.554Z,99872.09
2022-07-29T22:11:52.509Z,99843.50
2022-07-29T22:14:19.387Z,99857.72
2022-07-29T22:16:47.302Z,99874.22
2022-07-29T22:19:15.454Z,99869.69
2022-07-29T22:21:42.706Z,99871.69
2022-07-29T22:24:10.785Z,99870.28
2022-07-29T22:26:38.525Z,99862.63
2022-07-29T22:29:05.914Z,99817.81
2022-07-29T22:31:32.841Z,99841.22
2022-07-29T22:33:59.707Z,99840.25
2022-07-29T22:36:27.085Z,99856.75
2022-07-29T22:38:53.946Z,99809.66
2022-07-29T22:41:20.967Z,99847.16
2022-07-29T22:43:47.835Z,99815.00
2022-07-29T22:46:14.792Z,99834.03
2022-07-29T22:48:41.745Z,99834.88
2022-07-29T22:51:09.149Z,99831.22
2022-07-29T22:53:36.980Z,99805.13
2022-07-29T22:56:04.203Z,99809.63
2022-07-29T22:58:31.042Z,99819.34
2022-07-29T23:00:58.197Z,99831.06
2022-07-29T23:03:26.627Z,99835.00
2022-07-29T23:05:53.525Z,99828.03
2022-07-29T23:08:20.743Z,99835.66
2022-07-29T23:10:47.974Z,99842.84
2022-07-29T23:13:14.921Z,99828.03
2022-07-29T23:15:42.157Z,99793.94
2022-07-29T23:18:09.332Z,99842.63
2022-07-29T23:20:36.593Z,99830.06
2022-07-29T23:23:03.715Z,99830.91
2022-07-29T23:25:30.624Z,99815.41
2022-07-29T23:27:57.763Z,99829.38
2022-07-29T23:30:24.799Z,99840.06
2022-07-29T23:32:51.756Z,99829.34
2022-07-29T23:35:18.739Z,99823.53
2022-07-29T23:37:45.642Z,99812.16
2022-07-29T23:40:14.782Z,99832.97
2022-07-29T23:42:42.879Z,99814.03
2022-07-29T23:45:11.485Z,99829.56
2022-07-29T23:47:38.382Z,99797.66
2022-07-29T23:50:07.306Z,99834.00
2022-07-29T23:52:34.238Z,99817.47
2022-07-29T23:55:38.108Z,99818.31
2022-07-29T23:57:49.531Z,99780.97
